createdAt,value
2017-05-18T00:00:56.812Z,0
2017-05-18T00:02:05.781Z,0
2017-05-18T00:03:14.746Z,0
2017-05-18T00:04:23.707Z,0
2017-05-18T00:05:32.917Z,0
2017-05-18T00:06:41.885Z,0
2017-05-18T00:07:50.899Z,0
2017-05-18T00:08:59.879Z,0
2017-05-18T00:10:08.842Z,0
2017-05-18T00:11:18.114Z,0
2017-05-18T00:12:27.083Z,0
2017-05-18T00:13:36.135Z,0
2017-05-18T00:14:45.103Z,0
2017-05-18T00:15:54.152Z,0
2017-05-18T00:17:03.502Z,0
2017-05-18T00:18:12.558Z,0
2017-05-18T00:19:21.526Z,0
2017-05-18T00:20:30.491Z,0
2017-05-18T00:21:39.484Z,0
2017-05-18T00:22:48.836Z,0
2017-05-18T00:23:57.799Z,0
2017-05-18T00:25:07.092Z,0
2017-05-18T00:26:16.058Z,0
2017-05-18T00:27:25.021Z,0
2017-05-18T00:28:34.289Z,0
2017-05-18T00:29:43.255Z,0
2017-05-18T00:30:52.547Z,0
2017-05-18T00:32:01.510Z,0
2017-05-18T00:33:10.474Z,0
2017-05-18T00:34:19.794Z,0
2017-05-18T00:35:28.758Z,0
2017-05-18T00:36:37.726Z,0
2017-05-18T00:37:46.688Z,0
2017-05-18T00:38:55.655Z,0
2017-05-18T00:40:04.862Z,0
2017-05-18T00:41:13.820Z,0
2017-05-18T00:42:22.881Z,0
2017-05-18T00:43:31.852Z,0
2017-05-18T00:44:40.819Z,0
2017-05-18T00:45:50.036Z,0
2017-05-18T00:46:58.998Z,0
2017-05-18T00:48:07.964Z,0
2017-05-18T00:49:16.929Z,0
2017-05-18T00:50:25.895Z,0
2017-05-18T00:51:35.247Z,0
2017-05-18T00:52:44.212Z,0
2017-05-18T00:53:53.234Z,0
2017-05-18T00:55:02.210Z,0
2017-05-18T00:56:11.176Z,0
2017-05-18T00:57:20.442Z,0
2017-05-18T00:58:29.414Z,0
2017-05-18T00:59:38.557Z,0
2017-05-18T01:00:47.520Z,0
2017-05-18T01:01:56.570Z,0
2017-05-18T01:03:05.790Z,0
2017-05-18T01:04:14.844Z,0
2017-05-18T01:05:23.806Z,0
2017-05-18T01:06:32.767Z,0
2017-05-18T01:07:41.735Z,0
2017-05-18T01:08:51.005Z,0
2017-05-18T01:10:00.293Z,0
2017-05-18T01:11:09.257Z,0
2017-05-18T01:12:18.228Z,0
2017-05-18T01:13:27.530Z,0
2017-05-18T01:14:36.796Z,0
2017-05-18T01:15:45.760Z,0
2017-05-18T01:16:54.814Z,0
2017-05-18T01:18:03.797Z,0
2017-05-18T01:19:12.767Z,0
2017-05-18T01:20:22.028Z,0
2017-05-18T01:21:30.991Z,0
2017-05-18T01:22:40.127Z,0
2017-05-18T01:23:49.096Z,0
2017-05-18T01:24:58.111Z,0
2017-05-18T01:26:07.323Z,0
2017-05-18T01:27:16.295Z,0
2017-05-18T01:28:25.586Z,0
2017-05-18T01:29:34.650Z,0
2017-05-18T01:30:43.609Z,0
2017-05-18T01:31:52.827Z,0
2017-05-18T01:33:01.796Z,0
2017-05-18T01:34:10.770Z,0
2017-05-18T01:35:19.824Z,0
2017-05-18T01:36:28.794Z,0
2017-05-18T01:37:38.149Z,0
2017-05-18T01:38:47.199Z,0
2017-05-18T01:39:56.161Z,0
2017-05-18T01:41:05.126Z,0
2017-05-18T01:42:14.099Z,0
2017-05-18T01:43:23.367Z,0
2017-05-18T01:44:32.335Z,0
2017-05-18T01:45:41.298Z,0
2017-05-18T01:46:50.262Z,0
2017-05-18T01:47:59.224Z,0
2017-05-18T01:49:08.485Z,0
2017-05-18T01:50:17.450Z,0
2017-05-18T01:51:26.410Z,0
2017-05-18T01:52:35.696Z,0
2017-05-18T01:53:44.666Z,0
2017-05-18T01:54:53.935Z,0
2017-05-18T01:56:02.894Z,0
2017-05-18T01:57:12.193Z,0
2017-05-18T01:58:21.169Z,0
2017-05-18T01:59:30.132Z,0
2017-05-18T02:00:39.482Z,0
2017-05-18T02:01:48.442Z,0
2017-05-18T02:02:57.417Z,0
2017-05-18T02:04:06.387Z,0
2017-05-18T02:05:15.356Z,0
2017-05-18T02:06:24.621Z,0
2017-05-18T02:07:33.913Z,0
2017-05-18T02:08:42.878Z,0
2017-05-18T02:09:51.850Z,0
2017-05-18T02:11:00.993Z,0
2017-05-18T02:12:10.324Z,0
2017-05-18T02:13:19.293Z,0
2017-05-18T02:14:28.263Z,0
2017-05-18T02:15:37.227Z,0
2017-05-18T02:16:46.186Z,0
2017-05-18T02:17:55.493Z,0
2017-05-18T02:19:04.455Z,0
2017-05-18T02:20:13.417Z,0
2017-05-18T02:21:22.471Z,0
2017-05-18T02:22:31.520Z,0
2017-05-18T02:23:40.785Z,0
2017-05-18T02:24:50.129Z,0
2017-05-18T02:25:59.093Z,0
2017-05-18T02:27:08.060Z,0
2017-05-18T02:28:17.025Z,0
2017-05-18T02:29:26.295Z,0
2017-05-18T02:30:35.258Z,0
2017-05-18T02:31:44.220Z,0
2017-05-18T02:32:53.202Z,0
2017-05-18T02:34:02.165Z,0
2017-05-18T02:35:11.379Z,0
2017-05-18T02:36:20.339Z,0
2017-05-18T02:37:29.306Z,0
2017-05-18T02:38:38.274Z,0
2017-05-18T02:39:47.236Z,0
2017-05-18T02:40:56.529Z,0
2017-05-18T02:42:05.492Z,0
2017-05-18T02:43:14.456Z,0
2017-05-18T02:44:23.475Z,0
2017-05-18T02:45:32.439Z,0
2017-05-18T02:46:41.702Z,0
2017-05-18T02:47:50.662Z,0
2017-05-18T02:48:59.625Z,0
2017-05-18T02:50:08.678Z,0
2017-05-18T02:51:17.643Z,0
2017-05-18T02:52:26.906Z,0
2017-05-18T02:53:35.872Z,0
2017-05-18T02:54:44.839Z,0
2017-05-18T02:55:53.888Z,0
2017-05-18T02:57:02.856Z,0
2017-05-18T02:58:12.119Z,0
2017-05-18T02:59:21.169Z,0
2017-05-18T03:00:30.131Z,0
2017-05-18T03:01:39.097Z,0
2017-05-18T03:02:48.152Z,0
2017-05-18T03:03:57.512Z,0
2017-05-18T03:05:06.486Z,0
2017-05-18T03:06:15.501Z,0
2017-05-18T03:07:24.467Z,0
2017-05-18T03:08:33.750Z,0
2017-05-18T03:09:43.018Z,0
2017-05-18T03:10:51.989Z,0
2017-05-18T03:12:00.948Z,0
2017-05-18T03:13:09.911Z,0
2017-05-18T03:14:18.875Z,0
2017-05-18T03:15:28.146Z,0
2017-05-18T03:16:37.193Z,0
2017-05-18T03:17:46.163Z,0
2017-05-18T03:18:55.127Z,0
2017-05-18T03:20:04.095Z,0
2017-05-18T03:21:28.887Z,0
2017-05-18T03:22:37.854Z,0
2017-05-18T03:23:46.972Z,0
2017-05-18T03:24:55.934Z,0
2017-05-18T03:26:04.905Z,0
2017-05-18T03:27:14.180Z,0
2017-05-18T03:28:23.231Z,0
2017-05-18T03:29:32.282Z,0
2017-05-18T03:30:41.257Z,0
2017-05-18T03:31:50.301Z,0
2017-05-18T03:32:59.574Z,0
2017-05-18T03:34:08.538Z,0
2017-05-18T03:35:17.507Z,0
2017-05-18T03:36:26.469Z,0
2017-05-18T03:37:35.440Z,0
2017-05-18T03:38:44.649Z,0
2017-05-18T03:39:53.713Z,5
2017-05-18T03:41:02.673Z,5
2017-05-18T03:42:11.677Z,5
2017-05-18T03:43:20.730Z,5
2017-05-18T03:44:30.089Z,5
2017-05-18T03:45:39.058Z,5
2017-05-18T03:46:48.119Z,5
2017-05-18T03:47:57.420Z,5
2017-05-18T03:49:06.382Z,5
2017-05-18T03:50:15.647Z,5
2017-05-18T03:51:24.611Z,5
2017-05-18T03:52:33.589Z,5
2017-05-18T03:53:42.633Z,5
2017-05-18T03:54:51.693Z,5
2017-05-18T03:56:00.992Z,5
2017-05-18T03:57:09.950Z,5
2017-05-18T03:58:19.014Z,5
2017-05-18T03:59:28.059Z,5
2017-05-18T04:00:37.024Z,5
2017-05-18T04:01:46.289Z,5
2017-05-18T04:02:55.257Z,5
2017-05-18T04:04:04.215Z,5
2017-05-18T04:05:13.173Z,5
2017-05-18T04:06:22.145Z,5
2017-05-18T04:07:31.402Z,5
2017-05-18T04:08:40.368Z,5
2017-05-18T04:09:49.338Z,10
2017-05-18T04:10:58.302Z,10
2017-05-18T04:12:07.268Z,10
2017-05-18T04:13:16.537Z,10
2017-05-18T04:14:25.504Z,10
2017-05-18T04:15:34.464Z,10
2017-05-18T04:16:43.425Z,10
2017-05-18T04:17:52.389Z,10
2017-05-18T04:19:01.606Z,10
2017-05-18T04:20:10.564Z,10
2017-05-18T04:21:19.530Z,10
2017-05-18T04:22:28.495Z,10
2017-05-18T04:23:37.457Z,10
2017-05-18T04:24:46.667Z,10
2017-05-18T04:25:55.629Z,10
2017-05-18T04:27:04.599Z,10
2017-05-18T04:28:13.564Z,10
2017-05-18T04:29:22.535Z,10
2017-05-18T04:30:31.799Z,10
2017-05-18T04:31:40.763Z,10
2017-05-18T04:32:49.725Z,10
2017-05-18T04:33:58.688Z,10
2017-05-18T04:35:07.654Z,10
2017-05-18T04:36:16.872Z,15
2017-05-18T04:37:25.925Z,15
2017-05-18T04:38:34.935Z,15
2017-05-18T04:39:43.895Z,15
2017-05-18T04:40:52.947Z,15
2017-05-18T04:42:02.212Z,15
2017-05-18T04:43:11.176Z,15
2017-05-18T04:44:20.222Z,15
2017-05-18T04:45:29.188Z,15
2017-05-18T04:46:38.254Z,15
2017-05-18T04:47:47.534Z,15
2017-05-18T04:48:56.496Z,15
2017-05-18T04:50:05.456Z,15
2017-05-18T04:51:14.423Z,15
2017-05-18T04:52:23.472Z,15
2017-05-18T04:53:32.734Z,15
2017-05-18T04:54:41.793Z,15
2017-05-18T04:55:50.759Z,15
2017-05-18T04:56:59.722Z,15
2017-05-18T04:58:08.681Z,15
2017-05-18T04:59:17.948Z,15
2017-05-18T05:00:26.902Z,20
2017-05-18T05:01:35.953Z,20
2017-05-18T05:02:45.010Z,20
2017-05-18T05:03:53.994Z,20
2017-05-18T05:05:03.262Z,20
2017-05-18T05:06:12.276Z,20
2017-05-18T05:07:21.325Z,20
2017-05-18T05:08:30.294Z,20
2017-05-18T05:09:39.261Z,20
2017-05-18T05:10:48.476Z,20
2017-05-18T05:11:57.449Z,20
2017-05-18T05:13:06.413Z,20
2017-05-18T05:14:15.375Z,20
2017-05-18T05:15:24.333Z,20
2017-05-18T05:16:33.590Z,20
2017-05-18T05:17:42.567Z,20
2017-05-18T05:18:51.541Z,20
2017-05-18T05:20:00.506Z,20
2017-05-18T05:21:09.470Z,20
2017-05-18T05:22:18.740Z,25
2017-05-18T05:23:27.789Z,25
2017-05-18T05:24:36.843Z,25
2017-05-18T05:25:45.807Z,25
2017-05-18T05:26:54.771Z,25
2017-05-18T05:28:04.038Z,25
2017-05-18T05:29:13.005Z,25
2017-05-18T05:30:21.963Z,25
2017-05-18T05:31:30.968Z,25
2017-05-18T05:32:42.885Z,25
2017-05-18T05:33:52.778Z,25
2017-05-18T05:35:02.769Z,25
2017-05-18T05:36:12.489Z,25
2017-05-18T05:37:21.780Z,25
2017-05-18T05:38:31.556Z,25
2017-05-18T05:39:41.325Z,25
2017-05-18T05:40:51.199Z,30
2017-05-18T05:42:02.134Z,30
2017-05-18T05:43:11.986Z,30
2017-05-18T05:44:21.842Z,30
2017-05-18T05:45:31.652Z,30
2017-05-18T05:46:40.880Z,30
2017-05-18T05:47:50.783Z,30
2017-05-18T05:49:00.515Z,30
2017-05-18T05:50:09.842Z,30
2017-05-18T05:51:19.562Z,30
2017-05-18T05:52:28.905Z,30
2017-05-18T05:53:38.747Z,30
2017-05-18T05:54:48.653Z,35
2017-05-18T05:56:03.105Z,35
2017-05-18T05:57:22.136Z,35
2017-05-18T05:58:31.101Z,35
2017-05-18T05:59:40.387Z,35
2017-05-18T06:00:49.442Z,35
2017-05-18T06:01:58.407Z,35
2017-05-18T06:03:07.620Z,35
2017-05-18T06:04:16.599Z,35
2017-05-18T06:05:25.561Z,35
2017-05-18T06:06:34.608Z,35
2017-05-18T06:07:43.572Z,35
2017-05-18T06:08:52.810Z,35
2017-05-18T06:10:01.779Z,35
2017-05-18T06:11:10.743Z,35
2017-05-18T06:12:19.709Z,35
2017-05-18T06:13:28.673Z,35
2017-05-18T06:14:37.932Z,35
2017-05-18T06:15:46.980Z,35
2017-05-18T06:16:55.939Z,35
2017-05-18T06:18:04.912Z,35
2017-05-18T06:19:13.885Z,35
2017-05-18T06:20:23.153Z,40
2017-05-18T06:21:32.125Z,40
2017-05-18T06:22:41.091Z,40
2017-05-18T06:23:50.067Z,40
2017-05-18T06:24:59.358Z,40
2017-05-18T06:26:08.628Z,40
2017-05-18T06:27:17.592Z,40
2017-05-18T06:28:26.644Z,40
2017-05-18T06:29:35.608Z,40
2017-05-18T06:30:44.663Z,45
2017-05-18T06:31:53.875Z,45
2017-05-18T06:33:02.839Z,45
2017-05-18T06:34:11.806Z,45
2017-05-18T06:35:20.764Z,45
2017-05-18T06:36:29.734Z,45
2017-05-18T06:37:38.997Z,45
2017-05-18T06:38:47.962Z,45
2017-05-18T06:39:56.932Z,45
2017-05-18T06:41:05.901Z,45
2017-05-18T06:42:14.866Z,45
2017-05-18T06:43:24.130Z,45
2017-05-18T06:44:33.096Z,45
2017-05-18T06:45:42.064Z,45
2017-05-18T06:46:51.030Z,45
2017-05-18T06:47:59.998Z,45
2017-05-18T06:49:09.263Z,45
2017-05-18T06:50:18.231Z,45
2017-05-18T06:51:27.197Z,45
2017-05-18T06:52:36.172Z,45
2017-05-18T06:53:45.137Z,45
2017-05-18T06:54:54.459Z,45
2017-05-18T06:56:03.430Z,45
2017-05-18T06:57:12.479Z,45
2017-05-18T06:58:21.449Z,45
2017-05-18T06:59:30.516Z,45
2017-05-18T07:00:39.781Z,50
2017-05-18T07:01:48.748Z,50
2017-05-18T07:02:57.712Z,50
2017-05-18T07:04:06.765Z,50
2017-05-18T07:05:15.729Z,50
2017-05-18T07:06:24.994Z,50
2017-05-18T07:07:33.957Z,50
2017-05-18T07:08:42.928Z,50
2017-05-18T07:09:52.226Z,50
2017-05-18T07:11:01.189Z,50
2017-05-18T07:12:10.453Z,50
2017-05-18T07:13:19.418Z,50
2017-05-18T07:14:28.382Z,50
2017-05-18T07:15:37.437Z,50
2017-05-18T07:16:46.491Z,50
2017-05-18T07:17:55.758Z,55
2017-05-18T07:19:04.722Z,50
2017-05-18T07:20:13.686Z,50
2017-05-18T07:21:22.659Z,55
2017-05-18T07:22:31.625Z,50
2017-05-18T07:23:40.982Z,50
2017-05-18T07:24:49.943Z,55
2017-05-18T07:25:58.902Z,55
2017-05-18T07:27:07.960Z,55
2017-05-18T07:28:16.925Z,55
2017-05-18T07:29:26.282Z,55
2017-05-18T07:30:35.246Z,55
2017-05-18T07:31:44.208Z,55
2017-05-18T07:32:53.174Z,55
2017-05-18T07:34:02.144Z,55
2017-05-18T07:35:11.960Z,55
2017-05-18T07:36:20.920Z,55
2017-05-18T07:37:29.946Z,55
2017-05-18T07:38:38.972Z,55
2017-05-18T07:39:47.940Z,55
2017-05-18T07:40:57.202Z,55
2017-05-18T07:42:06.166Z,55
2017-05-18T07:43:15.135Z,55
2017-05-18T07:44:24.103Z,55
2017-05-18T07:45:33.068Z,55
2017-05-18T07:46:42.282Z,55
2017-05-18T07:47:51.245Z,55
2017-05-18T07:49:00.218Z,55
2017-05-18T07:50:09.267Z,55
2017-05-18T07:51:18.232Z,55
2017-05-18T07:52:27.502Z,55
2017-05-18T07:53:36.467Z,55
2017-05-18T07:54:45.433Z,55
2017-05-18T07:55:54.396Z,55
2017-05-18T07:57:03.413Z,55
2017-05-18T07:58:12.678Z,55
2017-05-18T07:59:21.649Z,55
2017-05-18T08:00:30.704Z,55
2017-05-18T08:01:39.671Z,60
2017-05-18T08:02:48.725Z,55
2017-05-18T08:03:57.945Z,60
2017-05-18T08:05:06.914Z,55
2017-05-18T08:06:15.880Z,55
2017-05-18T08:07:24.842Z,60
2017-05-18T08:08:33.845Z,60
2017-05-18T08:09:43.114Z,60
2017-05-18T08:10:52.086Z,60
2017-05-18T08:12:01.052Z,60
2017-05-18T08:13:10.114Z,60
2017-05-18T08:14:19.083Z,60
2017-05-18T08:15:28.305Z,60
2017-05-18T08:16:37.275Z,60
2017-05-18T08:17:46.329Z,60
2017-05-18T08:18:55.298Z,60
2017-05-18T08:20:04.268Z,60
2017-05-18T08:21:13.487Z,60
2017-05-18T08:22:22.452Z,60
2017-05-18T08:23:31.419Z,60
2017-05-18T08:24:40.391Z,60
2017-05-18T08:25:49.365Z,60
2017-05-18T08:26:58.636Z,60
2017-05-18T08:28:07.602Z,60
2017-05-18T08:29:16.569Z,60
2017-05-18T08:30:25.535Z,60
2017-05-18T08:31:34.587Z,60
2017-05-18T08:32:43.854Z,60
2017-05-18T08:33:52.825Z,60
2017-05-18T08:35:01.797Z,60
2017-05-18T08:36:10.766Z,60
2017-05-18T08:37:19.817Z,60
2017-05-18T08:38:29.082Z,65
2017-05-18T08:39:38.060Z,65
2017-05-18T08:40:47.347Z,60
2017-05-18T08:41:56.311Z,60
2017-05-18T08:43:05.283Z,65
2017-05-18T08:44:14.553Z,65
2017-05-18T08:45:23.519Z,65
2017-05-18T08:46:32.488Z,60
2017-05-18T08:47:41.465Z,65
2017-05-18T08:48:50.431Z,65
2017-05-18T08:49:59.698Z,65
2017-05-18T08:51:08.747Z,65
2017-05-18T08:52:17.720Z,65
2017-05-18T08:53:26.693Z,65
2017-05-18T08:54:35.665Z,65
2017-05-18T08:55:44.937Z,60
2017-05-18T08:56:53.902Z,60
2017-05-18T08:58:02.875Z,60
2017-05-18T08:59:11.837Z,65
2017-05-18T09:00:20.802Z,65
2017-05-18T09:01:30.063Z,60
2017-05-18T09:02:39.212Z,60
2017-05-18T09:03:48.180Z,60
2017-05-18T09:04:57.150Z,60
2017-05-18T09:06:06.114Z,55
2017-05-18T09:07:15.384Z,60
2017-05-18T09:08:24.346Z,60
2017-05-18T09:09:33.316Z,60
2017-05-18T09:10:42.287Z,60
2017-05-18T09:11:51.252Z,60
2017-05-18T09:13:00.534Z,60
2017-05-18T09:14:09.503Z,60
2017-05-18T09:15:18.468Z,60
2017-05-18T09:16:27.432Z,60
2017-05-18T09:17:36.725Z,60
2017-05-18T09:18:46.000Z,60
2017-05-18T09:19:54.971Z,60
2017-05-18T09:21:03.942Z,65
2017-05-18T09:22:12.915Z,65
2017-05-18T09:23:21.876Z,65
2017-05-18T09:24:31.139Z,70
2017-05-18T09:25:40.107Z,75
2017-05-18T09:26:49.077Z,75
2017-05-18T09:27:58.046Z,75
2017-05-18T09:29:07.181Z,75
2017-05-18T09:30:16.445Z,75
2017-05-18T09:31:25.493Z,75
2017-05-18T09:32:34.457Z,70
2017-05-18T09:33:43.524Z,70
2017-05-18T09:34:52.494Z,70
2017-05-18T09:36:01.761Z,70
2017-05-18T09:37:10.728Z,70
2017-05-18T09:38:19.691Z,70
2017-05-18T09:39:28.661Z,70
2017-05-18T09:40:37.639Z,65
2017-05-18T09:41:46.854Z,70
2017-05-18T09:42:55.901Z,65
2017-05-18T09:44:04.872Z,65
2017-05-18T09:45:13.922Z,65
2017-05-18T09:46:22.894Z,65
2017-05-18T09:47:32.167Z,65
2017-05-18T09:48:41.142Z,65
2017-05-18T09:49:50.113Z,65
2017-05-18T09:50:59.164Z,65
2017-05-18T09:52:08.221Z,65
2017-05-18T09:53:17.497Z,65
2017-05-18T09:54:26.482Z,65
2017-05-18T09:55:35.559Z,65
2017-05-18T09:56:44.614Z,65
2017-05-18T09:57:53.582Z,65
2017-05-18T09:59:02.854Z,65
2017-05-18T10:00:11.821Z,65
2017-05-18T10:01:20.794Z,65
2017-05-18T10:02:29.758Z,60
2017-05-18T10:03:38.776Z,65
2017-05-18T10:04:47.996Z,70
2017-05-18T10:05:56.962Z,70
2017-05-18T10:07:05.926Z,70
2017-05-18T10:08:15.226Z,70
2017-05-18T10:09:24.198Z,70
2017-05-18T10:10:33.471Z,70
2017-05-18T10:11:42.500Z,70
2017-05-18T10:12:51.480Z,70
2017-05-18T10:14:00.439Z,70
2017-05-18T10:15:09.406Z,70
2017-05-18T10:16:18.667Z,75
2017-05-18T10:17:27.630Z,70
2017-05-18T10:18:36.601Z,70
2017-05-18T10:19:45.566Z,70
2017-05-18T10:20:54.533Z,70
2017-05-18T10:22:03.804Z,70
2017-05-18T10:23:12.770Z,70
2017-05-18T10:24:21.740Z,70
2017-05-18T10:25:30.711Z,70
2017-05-18T10:26:40.053Z,70
2017-05-18T10:27:49.412Z,70
2017-05-18T10:28:58.468Z,70
2017-05-18T10:30:07.446Z,70
2017-05-18T10:31:16.499Z,70
2017-05-18T10:32:25.460Z,70
2017-05-18T10:33:34.726Z,70
2017-05-18T10:34:44.106Z,70
2017-05-18T10:35:53.158Z,70
2017-05-18T10:37:02.174Z,70
2017-05-18T10:38:11.144Z,70
2017-05-18T10:39:20.412Z,70
2017-05-18T10:40:29.467Z,70
2017-05-18T10:41:38.439Z,70
2017-05-18T10:42:47.409Z,70
2017-05-18T10:43:56.382Z,70
2017-05-18T10:45:05.657Z,70
2017-05-18T10:46:14.632Z,70
2017-05-18T10:47:23.689Z,70
2017-05-18T10:48:32.657Z,70
2017-05-18T10:49:41.626Z,70
2017-05-18T10:50:50.898Z,70
2017-05-18T10:51:59.870Z,70
2017-05-18T10:53:08.836Z,70
2017-05-18T10:54:17.896Z,70
2017-05-18T10:55:26.862Z,70
2017-05-18T10:56:36.083Z,70
2017-05-18T10:57:45.062Z,70
2017-05-18T10:58:54.031Z,70
2017-05-18T11:00:03.322Z,70
2017-05-18T11:01:12.288Z,70
2017-05-18T11:02:21.567Z,70
2017-05-18T11:03:30.534Z,70
2017-05-18T11:04:39.500Z,70
2017-05-18T11:05:48.469Z,70
2017-05-18T11:06:57.436Z,75
2017-05-18T11:08:06.744Z,70
2017-05-18T11:09:15.711Z,70
2017-05-18T11:10:24.682Z,70
2017-05-18T11:11:33.656Z,70
2017-05-18T11:12:42.626Z,70
2017-05-18T11:13:51.900Z,70
2017-05-18T11:15:00.870Z,70
2017-05-18T11:16:09.925Z,70
2017-05-18T11:17:18.903Z,70
2017-05-18T11:18:27.877Z,70
2017-05-18T11:19:37.481Z,70
2017-05-18T11:20:46.458Z,70
2017-05-18T11:21:55.438Z,75
2017-05-18T11:23:04.415Z,70
2017-05-18T11:24:13.714Z,70
2017-05-18T11:25:23.073Z,75
2017-05-18T11:26:32.145Z,65
2017-05-18T11:27:41.436Z,65
2017-05-18T11:28:50.412Z,70
2017-05-18T11:29:59.719Z,70
2017-05-18T11:31:09.320Z,70
2017-05-18T11:32:18.283Z,70
2017-05-18T11:33:27.259Z,70
2017-05-18T11:34:36.227Z,70
2017-05-18T11:35:45.262Z,70
2017-05-18T11:36:54.483Z,70
2017-05-18T11:38:03.536Z,70
2017-05-18T11:39:12.555Z,70
2017-05-18T11:40:21.617Z,70
2017-05-18T11:41:30.580Z,70
2017-05-18T11:42:39.857Z,70
2017-05-18T11:43:48.919Z,65
2017-05-18T11:44:57.888Z,70
2017-05-18T11:46:06.862Z,65
2017-05-18T11:47:15.920Z,65
2017-05-18T11:48:25.190Z,65
2017-05-18T11:49:34.160Z,65
2017-05-18T11:50:43.127Z,65
2017-05-18T11:51:52.095Z,65
2017-05-18T11:53:01.071Z,65
2017-05-18T11:54:10.668Z,65
2017-05-18T11:55:19.959Z,65
2017-05-18T11:56:28.925Z,65
2017-05-18T11:57:37.896Z,65
2017-05-18T11:58:46.865Z,65
2017-05-18T11:59:56.148Z,60
2017-05-18T12:01:05.112Z,60
2017-05-18T12:02:14.078Z,60
2017-05-18T12:03:23.063Z,60
2017-05-18T12:04:32.031Z,60
2017-05-18T12:05:41.302Z,60
2017-05-18T12:06:50.276Z,60
2017-05-18T12:07:59.243Z,60
2017-05-18T12:09:08.215Z,60
2017-05-18T12:10:17.179Z,60
2017-05-18T12:11:26.442Z,60
2017-05-18T12:12:35.407Z,60
2017-05-18T12:13:44.385Z,60
2017-05-18T12:14:53.351Z,60
2017-05-18T12:16:02.317Z,60
2017-05-18T12:17:11.583Z,60
2017-05-18T12:18:20.551Z,60
2017-05-18T12:19:29.519Z,60
2017-05-18T12:20:38.569Z,60
2017-05-18T12:21:47.623Z,60
2017-05-18T12:22:56.892Z,60
2017-05-18T12:24:06.042Z,60
2017-05-18T12:25:15.011Z,60
2017-05-18T12:26:24.316Z,60
2017-05-18T12:27:34.027Z,60
2017-05-18T12:28:43.299Z,55
2017-05-18T12:29:52.349Z,55
2017-05-18T12:31:01.318Z,60
2017-05-18T12:32:10.292Z,55
2017-05-18T12:33:19.579Z,55
2017-05-18T12:34:28.850Z,55
2017-05-18T12:35:37.822Z,55
2017-05-18T12:36:46.885Z,55
2017-05-18T12:37:55.852Z,55
2017-05-18T12:39:04.822Z,55
2017-05-18T12:40:14.426Z,55
2017-05-18T12:41:23.390Z,55
2017-05-18T12:42:32.358Z,55
2017-05-18T12:43:41.322Z,55
2017-05-18T12:44:50.377Z,60
2017-05-18T12:45:59.643Z,60
2017-05-18T12:47:08.615Z,55
2017-05-18T12:48:17.588Z,60
2017-05-18T12:49:26.563Z,55
2017-05-18T12:50:35.535Z,55
2017-05-18T12:51:44.803Z,60
2017-05-18T12:52:53.771Z,60
2017-05-18T12:54:02.742Z,60
2017-05-18T12:55:11.711Z,60
2017-05-18T12:56:20.676Z,60
2017-05-18T12:57:29.948Z,65
2017-05-18T12:58:38.918Z,60
2017-05-18T12:59:47.980Z,60
2017-05-18T13:00:56.948Z,60
2017-05-18T13:02:05.926Z,60
2017-05-18T13:03:15.143Z,60
2017-05-18T13:04:24.116Z,60
2017-05-18T13:05:33.078Z,60
2017-05-18T13:06:42.044Z,60
2017-05-18T13:07:51.017Z,60
2017-05-18T13:09:00.242Z,60
2017-05-18T13:10:09.209Z,60
2017-05-18T13:11:18.181Z,60
2017-05-18T13:12:27.149Z,65
2017-05-18T13:13:36.211Z,65
2017-05-18T13:14:45.482Z,65
2017-05-18T13:15:54.451Z,65
2017-05-18T13:17:03.515Z,65
2017-05-18T13:18:12.571Z,65
2017-05-18T13:19:21.544Z,60
2017-05-18T13:20:30.814Z,60
2017-05-18T13:21:39.785Z,65
2017-05-18T13:22:48.784Z,65
2017-05-18T13:23:57.753Z,65
2017-05-18T13:25:06.719Z,65
2017-05-18T13:26:15.991Z,70
2017-05-18T13:27:24.959Z,65
2017-05-18T13:28:33.934Z,65
2017-05-18T13:29:42.898Z,60
2017-05-18T13:30:51.868Z,65
2017-05-18T13:32:01.223Z,65
2017-05-18T13:33:10.192Z,65
2017-05-18T13:34:19.162Z,65
2017-05-18T13:35:28.126Z,65
2017-05-18T13:36:37.088Z,70
2017-05-18T13:37:46.364Z,70
2017-05-18T13:38:55.422Z,65
2017-05-18T13:40:04.482Z,65
2017-05-18T13:41:14.097Z,65
2017-05-18T13:42:23.070Z,65
2017-05-18T13:43:32.343Z,65
2017-05-18T13:44:41.314Z,65
2017-05-18T13:45:50.282Z,65
2017-05-18T13:46:59.253Z,65
2017-05-18T13:48:08.225Z,65
2017-05-18T13:49:17.488Z,65
2017-05-18T13:50:26.469Z,65
2017-05-18T13:51:35.529Z,65
2017-05-18T13:52:44.497Z,65
2017-05-18T13:53:53.469Z,65
2017-05-18T13:55:02.740Z,65
2017-05-18T13:56:11.708Z,65
2017-05-18T13:57:20.677Z,65
2017-05-18T13:58:29.646Z,65
2017-05-18T13:59:38.622Z,65
2017-05-18T14:00:47.975Z,65
2017-05-18T14:01:57.361Z,60
2017-05-18T14:03:06.414Z,65
2017-05-18T14:04:15.387Z,65
2017-05-18T14:05:24.362Z,60
2017-05-18T14:06:33.725Z,65
2017-05-18T14:07:42.695Z,65
2017-05-18T14:08:51.662Z,65
2017-05-18T14:10:00.624Z,60
2017-05-18T14:11:09.590Z,60
2017-05-18T14:12:18.806Z,65
2017-05-18T14:13:27.779Z,65
2017-05-18T14:14:36.748Z,65
2017-05-18T14:15:45.715Z,65
2017-05-18T14:16:54.689Z,65
2017-05-18T14:18:03.907Z,65
2017-05-18T14:19:13.050Z,60
2017-05-18T14:20:22.020Z,65
2017-05-18T14:21:31.073Z,60
2017-05-18T14:22:40.042Z,60
2017-05-18T14:23:49.311Z,60
2017-05-18T14:24:58.280Z,60
2017-05-18T14:26:07.258Z,60
2017-05-18T14:27:16.221Z,60
2017-05-18T14:28:25.198Z,60
2017-05-18T14:29:34.418Z,60
2017-05-18T14:30:43.400Z,60
2017-05-18T14:31:52.381Z,55
2017-05-18T14:33:01.409Z,55
2017-05-18T14:34:10.380Z,55
2017-05-18T14:35:19.597Z,55
2017-05-18T14:36:28.621Z,55
2017-05-18T14:37:37.591Z,60
2017-05-18T14:38:46.562Z,60
2017-05-18T14:39:55.528Z,60
2017-05-18T14:41:04.887Z,55
2017-05-18T14:42:13.855Z,55
2017-05-18T14:43:22.916Z,55
2017-05-18T14:44:31.898Z,55
2017-05-18T14:45:40.866Z,55
2017-05-18T14:46:50.224Z,55
2017-05-18T14:47:59.264Z,55
2017-05-18T14:49:08.241Z,55
2017-05-18T14:50:17.352Z,55
2017-05-18T14:51:26.323Z,55
2017-05-18T14:52:35.601Z,55
2017-05-18T14:53:44.569Z,55
2017-05-18T14:54:53.622Z,55
2017-05-18T14:56:02.676Z,50
2017-05-18T14:57:11.644Z,50
2017-05-18T14:58:20.873Z,50
2017-05-18T14:59:29.846Z,50
2017-05-18T15:00:38.813Z,50
2017-05-18T15:01:47.873Z,50
2017-05-18T15:02:56.847Z,50
2017-05-18T15:04:06.207Z,50
2017-05-18T15:05:15.176Z,50
2017-05-18T15:06:24.145Z,50
2017-05-18T15:07:33.114Z,50
2017-05-18T15:08:42.080Z,50
2017-05-18T15:09:51.677Z,50
2017-05-18T15:11:00.647Z,45
2017-05-18T15:12:09.616Z,50
2017-05-18T15:13:18.586Z,45
2017-05-18T15:14:27.643Z,45
2017-05-18T15:15:37.062Z,45
2017-05-18T15:16:46.032Z,45
2017-05-18T15:17:55.000Z,50
2017-05-18T15:19:03.983Z,45
2017-05-18T15:20:12.953Z,45
2017-05-18T15:21:22.227Z,45
2017-05-18T15:22:31.278Z,45
2017-05-18T15:23:40.276Z,50
2017-05-18T15:24:49.243Z,45
2017-05-18T15:25:58.209Z,45
2017-05-18T15:27:07.475Z,45
2017-05-18T15:28:16.446Z,45
2017-05-18T15:29:25.421Z,45
2017-05-18T15:30:34.398Z,45
2017-05-18T15:31:43.592Z,45
2017-05-18T15:32:52.867Z,40
2017-05-18T15:34:01.834Z,40
2017-05-18T15:35:10.802Z,40
2017-05-18T15:36:19.772Z,40
2017-05-18T15:37:28.751Z,40
2017-05-18T15:38:38.016Z,40
2017-05-18T15:39:46.986Z,40
2017-05-18T15:40:56.214Z,40
2017-05-18T15:42:05.183Z,40
2017-05-18T15:43:14.234Z,40
2017-05-18T15:44:23.508Z,40
2017-05-18T15:45:32.563Z,35
2017-05-18T15:46:41.535Z,35
2017-05-18T15:47:50.505Z,35
2017-05-18T15:48:59.481Z,35
2017-05-18T15:50:08.696Z,35
2017-05-18T15:51:17.665Z,35
2017-05-18T15:52:26.634Z,35
2017-05-18T15:53:35.600Z,35
2017-05-18T15:54:44.572Z,35
2017-05-18T15:55:54.155Z,35
2017-05-18T15:57:03.118Z,35
2017-05-18T15:58:12.086Z,35
2017-05-18T15:59:21.055Z,35
2017-05-18T16:00:30.342Z,35
2017-05-18T16:01:39.612Z,35
2017-05-18T16:02:48.580Z,30
2017-05-18T16:03:57.550Z,35
2017-05-18T16:05:06.844Z,30
2017-05-18T16:06:15.897Z,35
2017-05-18T16:07:25.168Z,35
2017-05-18T16:08:34.227Z,30
2017-05-18T16:09:43.309Z,30
2017-05-18T16:10:52.318Z,30
2017-05-18T16:12:01.284Z,30
2017-05-18T16:13:10.560Z,30
2017-05-18T16:14:19.615Z,30
2017-05-18T16:15:28.583Z,30
2017-05-18T16:16:37.544Z,30
2017-05-18T16:17:46.518Z,30
2017-05-18T16:18:55.791Z,30
2017-05-18T16:20:04.761Z,30
2017-05-18T16:21:13.733Z,30
2017-05-18T16:22:22.702Z,30
2017-05-18T16:23:31.674Z,30
2017-05-18T16:24:40.943Z,30
2017-05-18T16:25:49.918Z,30
2017-05-18T16:26:58.892Z,25
2017-05-18T16:28:07.862Z,25
2017-05-18T16:29:16.833Z,25
2017-05-18T16:30:26.151Z,25
2017-05-18T16:31:35.148Z,25
2017-05-18T16:32:44.201Z,25
2017-05-18T16:33:53.259Z,25
2017-05-18T16:35:02.229Z,25